Time;durP1;ratioP1;P1;durP2;ratioP2;P2;SDS_P1;SDS_P2;PMS_P1;PMS_P2;Temp;Humidity;BMP_temperature;BMP_pressure;BME280_temperature;BME280_humidity;BME280_pressure;Samples;Min_cycle;Max_cycle;Signal;HPM_P1;HPM_P2
2023/11/25 00:01:46;;;;;;;1.38;0.28;;;2.00;99.90;;;0.09;94.82;99473.25;6014828;23;20478;-86
2023/11/25 00:04:42;;;;;;;3.25;0.43;;;;;;;0.09;95.69;99472.41;5998918;23;20034;-86
2023/11/25 00:07:08;;;;;;;0.52;0.25;;;2.00;99.90;;;0.01;96.36;99482.09;6012089;23;20642;-85
2023/11/25 00:09:47;;;;;;;4.60;0.47;;;1.90;99.90;;;-0.03;97.04;99468.34;6000463;23;20105;-85
2023/11/25 00:12:37;;;;;;;4.10;0.50;;;;;;;-0.03;97.42;99482.13;6015727;23;20019;-86
2023/11/25 00:15:06;;;;;;;2.03;0.50;;;;;;;0.01;97.32;99490.69;6087273;23;20021;-87
2023/11/25 00:17:55;;;;;;;1.42;0.40;;;1.90;99.90;;;0.04;97.73;99489.75;6095039;23;20013;-87
2023/11/25 00:20:27;;;;;;;2.17;0.52;;;;;;;0.07;97.49;99489.72;6094648;23;20013;-86
2023/11/25 00:23:14;;;;;;;2.55;0.60;;;;;;;0.18;95.98;99493.72;6035168;23;20488;-88
2023/11/25 00:25:57;;;;;;;3.95;0.50;;;;;;;0.28;95.36;99496.97;6101691;23;20117;-86
2023/11/25 00:28:25;;;;;;;1.15;0.38;;;;;;;0.34;94.13;99508.91;6082342;23;20029;-86
2023/11/25 00:30:58;;;;;;;1.80;0.43;;;2.10;99.90;;;0.37;92.97;99509.69;6091835;23;20467;-86
2023/11/25 00:33:28;;;;;;;1.25;0.40;;;;;;;0.49;91.69;99511.09;6057984;23;20013;-87
2023/11/25 00:35:54;;;;;;;3.10;0.73;;;2.20;99.90;;;0.53;90.72;99511.88;6074753;23;20013;-85
2023/11/25 00:38:28;;;;;;;2.58;0.50;;;2.30;99.90;;;0.56;89.42;99516.97;6027827;23;20013;-86
2023/11/25 00:40:55;;;;;;;2.88;0.57;;;;;;;0.62;88.12;99524.59;6038114;23;20088;-86
2023/11/25 00:43:21;;;;;;;2.83;0.40;;;2.40;99.90;;;0.65;87.59;99528.84;6062699;23;20010;-86
2023/11/25 00:45:47;;;;;;;3.97;0.70;;;2.40;99.90;;;0.66;87.05;99536.59;6070949;23;20443;-87
2023/11/25 00:48:25;;;;;;;2.03;0.70;;;;;;;0.67;86.02;99543.50;6074418;23;20014;-85
2023/11/25 00:53:46;;;;;;;1.58;0.38;;;2.50;99.90;;;0.73;84.98;99558.03;6040494;23;20017;-86
2023/11/25 00:56:32;;;;;;;;;;;;;;;;;;;;;
2023/11/25 00:58:58;;;;;;;2.80;0.30;;;2.50;99.90;;;0.77;84.64;99551.88;6034214;23;20085;-87
2023/11/25 01:01:25;;;;;;;0.77;0.20;;;2.50;99.90;;;0.78;83.92;99562.22;6032626;23;20113;-86
2023/11/25 01:04:03;;;;;;;;;;;;;;;;;;;;;
2023/11/25 01:06:29;;;;;;;1.25;0.30;;;2.60;99.90;;;0.78;84.38;99575.16;6087256;23;20355;-86
2023/11/25 01:08:56;;;;;;;2.03;0.40;;;;;;;0.83;84.01;99582.81;6079018;23;21377;-86
2023/11/25 01:12:07;;;;;;;0.93;0.22;;;2.60;99.90;;;0.81;83.79;99589.78;6065606;23;20021;-86
2023/11/25 01:14:48;;;;;;;3.80;0.50;;;;;;;0.81;83.66;99593.22;6081584;23;20018;-86
2023/11/25 01:17:41;;;;;;;;;;;;;;;;;;;;;
2023/11/25 01:20:09;;;;;;;3.22;0.80;;;;;;;0.76;83.16;99595.09;6055863;23;20123;-86
2023/11/25 01:23:07;;;;;;;1.95;0.45;;;;;;;0.77;83.17;99603.69;6068946;23;20805;-86
2023/11/25 01:25:40;;;;;;;1.63;0.20;;;;;;;0.78;82.32;99603.66;5968917;23;20018;-86
2023/11/25 01:28:06;;;;;;;4.82;0.43;;;;;;;0.81;82.18;99602.75;5957758;23;20026;-85
2023/11/25 01:30:33;;;;;;;2.50;0.40;;;2.60;99.90;;;0.81;81.37;99610.50;6009652;23;20115;-87
2023/11/25 01:32:59;;;;;;;1.60;0.40;;;;;;;0.78;81.35;99615.78;5959987;23;20016;-87
2023/11/25 01:35:55;;;;;;;0.88;0.30;;;;;;;0.79;81.12;99625.25;5945520;23;20493;-86
2023/11/25 01:38:28;;;;;;;0.95;0.47;;;;;;;0.73;80.89;99620.19;5905088;23;20058;-86
2023/11/25 01:40:57;;;;;;;2.15;0.40;;;2.60;99.90;;;0.72;81.55;99624.53;5902978;23;20249;-86
2023/11/25 01:44:07;;;;;;;1.35;0.50;;;;;;;0.73;80.98;99626.22;5925792;23;20560;-88
2023/11/25 01:47:06;;;;;;;1.52;0.40;;;;;;;0.67;81.23;99620.34;5891116;23;20254;-86
2023/11/25 01:52:42;;;;;;;2.47;0.30;;;;;;;0.65;80.92;99625.59;5822754;24;20017;-86
2023/11/25 01:55:18;;;;;;;2.70;0.60;;;2.50;99.90;;;0.61;81.01;99623.94;5820501;24;20025;-86
2023/11/25 01:57:47;;;;;;;0.85;0.30;;;;;;;0.59;81.33;99623.97;5799369;24;20018;-86
2023/11/25 02:01:26;;;;;;;1.13;0.20;;;2.40;99.90;;;0.55;81.66;99627.53;5787773;24;20458;-86
2023/11/25 02:04:07;;;;;;;1.27;0.30;;;;;;;0.48;81.50;99625.97;5816519;23;20033;-86
2023/11/25 02:06:48;;;;;;;1.95;0.40;;;2.30;99.90;;;0.43;82.07;99624.38;6154116;23;20024;-86
2023/11/25 02:09:45;;;;;;;2.30;0.50;;;2.30;99.90;;;0.42;82.42;99631.28;6066321;23;20043;-86
2023/11/25 02:12:11;;;;;;;1.48;0.40;;;2.30;99.90;;;0.40;82.31;99633.06;6071827;23;20013;-86
2023/11/25 02:14:47;;;;;;;3.72;0.50;;;2.20;99.90;;;0.36;82.99;99632.25;6075448;23;20477;-86
2023/11/25 02:17:14;;;;;;;3.65;0.50;;;2.10;99.90;;;0.31;83.62;99620.31;6030743;23;20018;-85
2023/11/25 02:19:46;;;;;;;0.68;0.28;;;;;;;0.30;83.71;99628.97;6105911;23;20351;-86
2023/11/25 02:22:15;;;;;;;3.78;0.40;;;2.10;99.90;;;0.24;84.15;99634.28;6120538;23;20044;-86
2023/11/25 02:24:56;;;;;;;4.63;0.50;;;;;;;0.18;84.59;99637.88;6097643;23;20024;-87
2023/11/25 02:27:23;;;;;;;4.72;0.70;;;;;;;0.11;85.25;99636.28;6151782;23;20047;-86
2023/11/25 02:29:58;;;;;;;1.15;0.55;;;1.90;99.90;;;0.01;85.63;99630.44;6111808;23;20628;-84
2023/11/25 02:32:24;;;;;;;4.85;0.65;;;1.90;99.90;;;-0.01;86.08;99633.06;6112636;23;20008;-86
2023/11/25 02:35:15;;;;;;;3.80;0.85;;;1.90;99.90;;;-0.04;86.54;99635.72;6079777;23;20108;-85
2023/11/25 02:37:45;;;;;;;0.75;0.30;;;1.80;99.90;;;-0.01;87.44;99638.25;6061743;23;20026;-84
2023/11/25 02:40:27;;;;;;;3.95;0.40;;;;;;;0.02;87.87;99637.31;6133827;23;20363;-85
2023/11/25 02:43:07;;;;;;;3.03;0.63;;;;;;;-0.01;88.02;99640.81;6089514;23;20024;-86
2023/11/25 02:45:40;;;;;;;1.70;0.30;;;1.80;99.90;;;-0.03;88.67;99641.75;6119954;23;20032;-85
2023/11/25 02:48:06;;;;;;;1.88;0.30;;;1.80;99.90;;;-0.02;89.19;99641.72;6107057;23;20009;-84
2023/11/25 02:50:35;;;;;;;2.33;0.40;;;1.80;99.90;;;0.06;89.02;99638.13;6137903;23;20378;-86
2023/11/25 02:53:09;;;;;;;2.88;0.50;;;1.90;99.90;;;0.11;89.11;99637.16;6081996;23;20063;-84
2023/11/25 02:55:35;;;;;;;2.78;0.65;;;;;;;0.15;89.31;99633.63;6042227;23;20567;-84
2023/11/25 02:58:02;;;;;;;1.00;0.43;;;1.90;99.90;;;0.21;88.74;99635.19;6066421;23;20023;-85
2023/11/25 03:00:30;;;;;;;1.75;0.40;;;2.00;99.90;;;0.19;88.58;99639.56;6066316;23;20159;-82
2023/11/25 03:03:17;;;;;;;4.05;0.40;;;;;;;0.17;88.43;99638.72;6084790;23;20460;-84
2023/11/25 03:05:49;;;;;;;3.92;0.50;;;;;;;0.10;88.76;99640.59;6090174;23;20557;-85
2023/11/25 03:08:18;;;;;;;3.72;0.50;;;1.90;99.90;;;-0.03;88.71;99631.41;6135488;23;20791;-84
2023/11/25 03:10:47;;;;;;;7.53;0.50;;;;;;;-0.11;88.58;99622.94;6076363;23;20073;-85
2023/11/25 03:13:14;;;;;;;4.55;0.40;;;1.70;99.90;;;-0.18;89.20;99629.13;6129683;23;20027;-84
2023/11/25 03:16:02;;;;;;;2.08;0.32;;;1.70;99.90;;;-0.15;89.30;99629.94;6122136;23;20021;-84
2023/11/25 03:18:27;;;;;;;3.58;0.40;;;1.70;99.90;;;-0.16;89.17;99627.38;6122491;23;20009;-83
2023/11/25 03:20:53;;;;;;;3.60;0.82;;;1.70;99.90;;;-0.13;89.31;99629.88;6090069;23;20016;-86
2023/11/25 03:23:19;;;;;;;3.28;0.50;;;1.60;99.90;;;-0.13;89.05;99635.94;6096102;23;20024;-83
2023/11/25 03:25:46;;;;;;;2.85;0.50;;;1.60;99.90;;;-0.19;89.41;99630.00;6091608;23;20088;-83
2023/11/25 03:28:17;;;;;;;2.83;0.52;;;1.60;99.90;;;-0.19;88.90;99630.00;6106348;23;20083;-82
2023/11/25 03:30:45;;;;;;;1.90;0.60;;;1.60;99.90;;;-0.17;88.88;99630.81;6126345;23;20012;-84
2023/11/25 03:33:11;;;;;;;3.70;0.50;;;1.50;99.90;;;-0.30;88.81;99638.84;6082799;23;20068;-84
2023/11/25 03:35:37;;;;;;;6.03;0.68;;;1.40;99.90;;;-0.35;88.79;99632.88;6094050;23;20884;-83
2023/11/25 03:38:10;;;;;;;3.92;0.60;;;1.40;99.90;;;-0.50;88.63;99633.19;6100566;23;20032;-83
2023/11/25 03:40:36;;;;;;;3.92;0.73;;;1.30;99.90;;;-0.57;88.35;99629.03;6092612;23;20013;-82
2023/11/25 03:43:02;;;;;;;6.18;0.70;;;2.70;99.90;;;-0.63;89.22;99633.44;6078863;23;20558;-83
2023/11/25 03:45:28;;;;;;;3.20;0.50;;;1.20;99.90;;;-0.62;89.38;99635.13;6105036;23;20476;-83
2023/11/25 03:47:54;;;;;;;5.05;0.73;;;1.20;99.90;;;-0.63;90.18;99643.78;6132606;23;20483;-83
2023/11/25 03:50:20;;;;;;;0.98;0.40;;;1.20;99.90;;;-0.65;90.60;99636.91;6076846;23;20038;-82
2023/11/25 03:52:50;;;;;;;5.55;0.68;;;1.20;99.90;;;-0.57;90.42;99647.97;6064629;23;20013;-82
2023/11/25 03:55:17;;;;;;;10.52;0.70;;;;;;;-0.50;90.49;99648.69;6092701;23;20013;-81
2023/11/25 03:57:43;;;;;;;5.60;0.65;;;;;;;-0.44;90.24;99644.25;6120409;23;20018;-83
2023/11/25 04:00:16;;;;;;;3.13;0.80;;;1.20;99.90;;;-0.40;89.71;99646.81;6137636;23;20230;-83
2023/11/25 04:02:47;;;;;;;6.07;0.85;;;1.20;99.90;;;-0.40;89.13;99650.25;6106094;23;20040;-81
2023/11/25 04:05:14;;;;;;;5.75;0.80;;;1.20;99.90;;;-0.42;88.83;99662.34;6126308;23;20059;-84
2023/11/25 04:07:47;;;;;;;5.47;0.82;;;1.20;99.90;;;-0.43;88.62;99668.41;6113642;23;20012;-82
2023/11/25 04:10:16;;;;;;;3.75;0.70;;;1.10;99.90;;;-0.47;88.88;99677.09;6109176;23;20013;-83
2023/11/25 04:12:54;;;;;;;;;;;;;;;;;;;;;
2023/11/25 04:15:20;;;;;;;3.45;0.60;;;1.10;99.90;;;-0.50;88.63;99671.97;6109216;23;20829;-82
2023/11/25 04:17:46;;;;;;;9.57;1.00;;;1.10;99.90;;;-0.50;88.49;99674.56;6092456;23;20024;-80
2023/11/25 04:20:24;;;;;;;;;;;;;;;;;;;;;
2023/11/25 04:22:57;;;;;;;4.47;0.47;;;1.10;99.90;;;-0.54;88.69;99672.91;6103947;23;20696;-82
2023/11/25 04:25:24;;;;;;;4.75;0.68;;;1.00;99.90;;;-0.57;89.53;99667.81;6150806;23;20028;-82
2023/11/25 04:27:50;;;;;;;5.53;0.70;;;1.00;99.90;;;-0.56;88.83;99675.53;6114482;23;20012;-82
2023/11/25 04:30:17;;;;;;;2.30;0.60;;;1.00;99.90;;;-0.56;89.10;99672.09;6081991;23;20052;-81
2023/11/25 04:32:49;;;;;;;5.07;0.68;;;1.00;99.90;;;-0.56;89.09;99679.84;6106950;23;20348;-81
2023/11/25 04:35:18;;;;;;;5.70;1.10;;;1.00;99.90;;;-0.58;89.39;99687.66;6090947;23;20072;-81
2023/11/25 04:37:45;;;;;;;3.30;1.00;;;1.00;99.90;;;-0.60;89.01;99685.94;6114758;23;20048;-82
2023/11/25 04:40:18;;;;;;;5.43;1.02;;;1.00;99.90;;;-0.62;89.14;99675.66;6089881;23;20013;-81
2023/11/25 04:42:44;;;;;;;9.98;1.20;;;1.00;99.90;;;-0.62;89.36;99683.41;6095886;23;20033;-81
2023/11/25 04:45:25;;;;;;;11.95;4.07;;;1.00;99.90;;;-0.64;89.52;99688.59;6083447;23;20091;-81
2023/11/25 04:47:51;;;;;;;11.10;3.58;;;1.00;99.90;;;-0.66;89.35;99685.19;6152176;23;20052;-81
2023/11/25 04:50:20;;;;;;;7.75;2.60;;;0.90;99.90;;;-0.67;89.24;99688.66;6074967;23;20021;-81
2023/11/25 04:52:49;;;;;;;8.23;1.73;;;0.90;99.90;;;-0.69;89.58;99690.41;6093104;23;20516;-79
2023/11/25 04:55:15;;;;;;;10.73;4.30;;;0.90;99.90;;;-0.70;89.93;99703.38;6101711;23;20364;-81
2023/11/25 04:57:42;;;;;;;8.43;2.55;;;0.90;99.90;;;-0.69;90.15;99702.47;6107374;23;20023;-81
2023/11/25 05:00:10;;;;;;;5.35;1.30;;;0.90;99.90;;;-0.71;90.06;99699.94;6111166;23;20033;-80
2023/11/25 05:02:42;;;;;;;10.13;1.75;;;0.90;99.90;;;-0.71;90.43;99702.50;6098218;23;20036;-81
2023/11/25 05:05:08;;;;;;;6.07;0.98;;;0.90;99.90;;;-0.74;90.48;99699.97;6107753;23;20025;-79
2023/11/25 05:07:34;;;;;;;4.07;0.93;;;0.90;99.90;;;-0.72;90.74;99711.13;6119498;23;20027;-80
2023/11/25 05:10:01;;;;;;;5.82;0.80;;;0.90;99.90;;;-0.72;90.78;99711.13;6132452;23;20021;-80
2023/11/25 05:12:35;;;;;;;6.13;0.98;;;0.90;99.90;;;-0.68;90.94;99711.94;6078715;23;20046;-80
2023/11/25 05:15:01;;;;;;;5.80;1.20;;;0.90;99.90;;;-0.67;91.17;99714.50;6094783;23;20020;-80
2023/11/25 05:17:27;;;;;;;9.15;0.70;;;1.20;99.90;;;-0.66;91.19;99712.78;6109510;23;20023;-79
2023/11/25 05:19:52;;;;;;;6.18;0.95;;;0.90;99.90;;;-0.63;91.37;99721.34;6083980;23;20785;-80
2023/11/25 05:22:20;;;;;;;5.40;0.88;;;1.00;99.90;;;-0.58;91.68;99722.97;6121390;23;20466;-79
2023/11/25 05:24:54;;;;;;;3.03;0.80;;;1.00;99.90;;;-0.60;91.94;99719.56;6092652;23;20042;-80
2023/11/25 05:27:20;;;;;;;3.25;0.50;;;1.00;99.90;;;-0.62;91.78;99723.03;6115331;23;20034;-80
2023/11/25 05:29:46;;;;;;;5.53;1.02;;;1.00;99.90;;;-0.64;91.73;99722.19;6061565;23;20013;-80
2023/11/25 05:32:14;;;;;;;9.13;0.60;;;1.00;99.90;;;-0.68;91.55;99733.47;6138481;23;20645;-80
2023/11/25 05:34:43;;;;;;;9.60;1.50;;;0.90;99.90;;;-0.70;91.72;99719.72;6037109;23;20013;-80
2023/11/25 05:37:09;;;;;;;3.03;0.73;;;0.90;99.90;;;-0.74;91.36;99717.22;6117859;23;20076;-80
2023/11/25 05:39:36;;;;;;;7.80;1.10;;;0.90;99.90;;;-0.80;91.28;99719.91;6136118;23;20018;-80
2023/11/25 05:42:03;;;;;;;5.00;0.90;;;0.80;99.90;;;-0.89;91.16;99718.31;6064101;23;20048;-80
2023/11/25 05:44:31;;;;;;;9.57;1.25;;;0.80;99.90;;;-0.93;91.50;99725.28;6106953;23;20341;-80
2023/11/25 05:46:57;;;;;;;5.43;0.70;;;0.70;99.90;;;-0.97;91.72;99720.16;6107488;23;20016;-79
2023/11/25 05:49:23;;;;;;;5.57;0.52;;;0.70;99.90;;;-0.95;92.08;99716.69;6125837;23;20017;-80
2023/11/25 05:51:50;;;;;;;9.93;1.00;;;0.70;99.90;;;-0.92;92.09;99721.81;6119736;23;20350;-79
2023/11/25 05:54:18;;;;;;;6.20;0.95;;;0.70;99.90;;;-0.87;92.46;99717.41;6120300;23;20095;-80
2023/11/25 05:56:48;;;;;;;10.10;1.27;;;0.80;99.90;;;-0.79;92.60;99725.03;6091337;23;20662;-78
2023/11/25 05:59:16;;;;;;;8.80;1.15;;;1.20;99.90;;;-0.72;93.31;99730.97;6126802;23;20017;-80
2023/11/25 06:01:43;;;;;;;11.82;1.25;;;0.90;99.90;;;-0.69;93.23;99729.19;6099973;23;20056;-79
2023/11/25 06:04:09;;;;;;;7.38;1.08;;;1.00;99.90;;;-0.64;93.63;99740.31;6135005;23;20021;-79
2023/11/25 06:06:35;;;;;;;9.00;1.25;;;1.00;99.90;;;-0.59;93.74;99741.97;6158244;23;20387;-79
2023/11/25 06:09:08;;;;;;;13.27;1.27;;;1.00;99.90;;;-0.54;94.25;99741.03;6115988;23;20018;-80
2023/11/25 06:11:34;;;;;;;9.43;1.20;;;1.10;99.90;;;-0.49;93.99;99741.78;6106180;23;20084;-79
2023/11/25 06:14:00;;;;;;;19.05;1.42;;;1.20;99.90;;;-0.42;94.44;99742.53;6090318;23;20029;-80
2023/11/25 06:16:26;;;;;;;14.52;1.55;;;1.20;99.90;;;-0.34;94.16;99742.41;6099029;23;20008;-79
2023/11/25 06:18:57;;;;;;;11.77;1.40;;;1.30;99.90;;;-0.27;94.26;99744.00;6105218;23;20009;-80
2023/11/25 06:21:23;;;;;;;8.77;1.08;;;2.20;99.90;;;-0.21;94.34;99742.16;6097113;23;20036;-80
2023/11/25 06:23:50;;;;;;;9.57;1.15;;;1.40;99.90;;;-0.14;94.27;99745.47;6108944;23;20021;-79
2023/11/25 06:26:17;;;;;;;10.85;1.17;;;1.40;99.90;;;-0.11;93.86;99739.38;6123252;23;20043;-79
2023/11/25 06:28:46;;;;;;;11.63;1.20;;;1.50;99.90;;;-0.08;94.10;99745.34;6111257;23;20006;-79
2023/11/25 06:31:15;;;;;;;7.30;1.50;;;1.50;99.90;;;-0.09;93.85;99743.63;6123284;23;20028;-80
2023/11/25 06:33:41;;;;;;;9.95;1.23;;;1.40;99.90;;;-0.07;93.19;99756.56;6115814;23;20013;-79
2023/11/25 06:36:10;;;;;;;8.85;1.13;;;1.50;99.90;;;-0.06;93.30;99758.28;6119819;23;20021;-78
2023/11/25 06:38:41;;;;;;;11.20;1.00;;;1.50;99.90;;;-0.06;93.34;99756.53;6121806;23;20008;-80
2023/11/25 06:41:09;;;;;;;11.32;1.85;;;2.30;99.90;;;-0.02;93.44;99759.94;6107565;23;20012;-79
2023/11/25 06:43:37;;;;;;;6.13;1.30;;;1.50;99.90;;;-0.01;94.02;99759.88;6108296;23;20099;-80
2023/11/25 06:46:06;;;;;;;18.42;1.73;;;1.50;99.90;;;-0.01;93.77;99762.47;6135759;23;20123;-81
2023/11/25 06:48:34;;;;;;;17.75;1.58;;;1.50;99.90;;;0.02;93.71;99764.13;6051359;23;20083;-80
2023/11/25 06:51:03;;;;;;;4.75;0.90;;;1.60;99.90;;;0.02;93.77;99766.72;6145892;23;20040;-79
2023/11/25 06:53:29;;;;;;;6.30;1.10;;;1.60;99.90;;;0.04;94.10;99767.56;6092412;23;20475;-79
2023/11/25 06:56:02;;;;;;;7.05;1.00;;;1.60;99.90;;;0.06;94.23;99768.38;6122426;23;20084;-80
2023/11/25 06:58:27;;;;;;;7.00;1.00;;;1.60;99.90;;;0.09;94.60;99770.94;6181154;23;20104;-79
2023/11/25 07:00:57;;;;;;;10.52;1.10;;;1.60;99.90;;;0.13;94.60;99780.34;6107201;23;20524;-80
2023/11/25 07:03:23;;;;;;;10.75;1.20;;;1.70;99.90;;;0.15;94.32;99776.00;6117748;23;20017;-81
2023/11/25 07:06:00;;;;;;;15.32;1.15;;;1.70;99.90;;;0.23;94.27;99782.75;6103806;23;20096;-79
2023/11/25 07:08:26;;;;;;;7.10;1.00;;;1.80;99.90;;;0.25;94.17;99784.41;6091846;23;20083;-79
2023/11/25 07:10:59;;;;;;;4.28;0.90;;;1.80;99.90;;;0.29;94.31;99796.44;6095538;23;20473;-80
2023/11/25 07:13:28;;;;;;;5.63;0.93;;;1.80;99.90;;;0.32;93.96;99790.34;6145020;23;20016;-80
2023/11/25 07:15:53;;;;;;;6.95;1.08;;;1.80;99.90;;;0.35;93.96;99800.66;6138720;23;20017;-80
2023/11/25 07:18:19;;;;;;;10.77;0.90;;;1.90;99.90;;;0.38;94.14;99795.41;6118774;23;20012;-79
2023/11/25 07:20:51;;;;;;;7.05;1.50;;;1.90;99.90;;;0.40;94.14;99793.63;6124558;23;20024;-80
2023/11/25 07:23:18;;;;;;;12.63;1.65;;;1.90;99.90;;;0.45;93.84;99801.31;6126177;23;20140;-79
2023/11/25 07:25:47;;;;;;;12.55;1.90;;;2.00;99.90;;;0.48;93.98;99798.66;6116184;23;20044;-80
2023/11/25 07:28:19;;;;;;;7.03;1.20;;;2.00;99.90;;;0.49;94.46;99808.13;6158414;23;20072;-80
2023/11/25 07:30:45;;;;;;;6.00;1.13;;;2.00;99.90;;;0.47;94.11;99810.75;6134922;23;20352;-80
2023/11/25 07:33:11;;;;;;;13.32;1.50;;;2.00;99.90;;;0.46;94.03;99808.19;6109349;23;20063;-80
2023/11/25 07:35:37;;;;;;;10.32;1.50;;;2.00;99.90;;;0.42;94.15;99797.03;6132430;23;20016;-80
2023/11/25 07:38:03;;;;;;;7.93;1.55;;;2.00;99.90;;;0.45;94.48;99804.72;6132665;23;20506;-80
2023/11/25 07:40:36;;;;;;;14.60;1.70;;;2.00;99.90;;;0.47;94.39;99808.16;6115638;23;20013;-80
2023/11/25 07:43:03;;;;;;;8.50;1.42;;;2.00;99.90;;;0.49;94.79;99811.56;6150503;23;20017;-80
2023/11/25 07:45:29;;;;;;;11.00;1.42;;;2.00;99.90;;;0.51;94.73;99809.78;6112151;23;20017;-80
2023/11/25 07:47:55;;;;;;;19.70;1.85;;;2.10;99.90;;;0.54;94.49;99807.16;6147350;23;20450;-82
2023/11/25 07:50:23;;;;;;;10.27;1.45;;;2.10;99.90;;;0.58;94.61;99808.81;6169675;23;20478;-81
2023/11/25 07:52:51;;;;;;;14.20;1.48;;;2.10;99.90;;;0.61;94.38;99798.38;6118098;23;20285;-82
2023/11/25 07:55:17;;;;;;;8.93;1.58;;;2.20;99.90;;;0.66;94.34;99800.03;6125888;23;20011;-82
2023/11/25 07:57:43;;;;;;;14.50;1.77;;;2.20;99.90;;;0.67;94.17;99799.13;6101908;23;20055;-82
2023/11/25 08:00:16;;;;;;;8.65;1.40;;;;;;;0.70;94.04;99804.25;6115724;23;20524;-81
2023/11/25 08:02:43;;;;;;;11.48;1.80;;;2.20;99.90;;;0.68;93.84;99801.69;6077299;23;20458;-82
2023/11/25 08:05:11;;;;;;;10.07;1.52;;;2.20;99.90;;;0.69;93.77;99807.72;6106219;23;20675;-81
2023/11/25 08:07:37;;;;;;;12.35;1.73;;;1.90;99.90;;;0.68;93.56;99818.97;6133144;23;20016;-81
2023/11/25 08:10:06;;;;;;;9.15;1.35;;;2.20;99.90;;;0.65;93.46;99809.53;6076510;23;20566;-82
2023/11/25 08:12:34;;;;;;;14.40;2.13;;;2.20;99.90;;;0.64;93.57;99804.38;6104903;23;20017;-81
2023/11/25 08:15:00;;;;;;;9.20;1.40;;;2.20;99.90;;;0.64;93.43;99809.56;6107895;23;20055;-82
2023/11/25 08:17:27;;;;;;;12.18;2.00;;;2.10;99.90;;;0.63;92.98;99811.31;6110361;23;20095;-82
2023/11/25 08:19:52;;;;;;;13.43;1.45;;;2.20;99.90;;;0.61;93.45;99806.16;6098794;23;20013;-82
2023/11/25 08:22:18;;;;;;;9.90;1.63;;;2.20;99.90;;;0.61;93.58;99803.56;6110616;23;20040;-82
2023/11/25 08:24:54;;;;;;;12.95;1.75;;;2.20;99.90;;;0.67;93.71;99802.59;6089676;23;20471;-82
2023/11/25 08:27:20;;;;;;;21.23;1.98;;;2.20;99.90;;;0.70;94.11;99802.50;6101345;23;20016;-81
2023/11/25 08:29:46;;;;;;;11.88;1.67;;;2.20;99.90;;;0.75;94.20;99807.59;6088829;23;20987;-81
2023/11/25 08:32:17;;;;;;;9.20;1.52;;;2.30;99.90;;;0.77;94.73;99796.31;6128466;23;20483;-82
2023/11/25 08:34:43;;;;;;;14.43;1.85;;;2.30;99.90;;;0.83;94.91;99803.09;6074612;23;20025;-82
2023/11/25 08:37:09;;;;;;;12.70;1.98;;;2.40;99.90;;;0.90;95.31;99807.25;6074068;23;20012;-82
2023/11/25 08:39:35;;;;;;;15.07;1.70;;;2.40;99.90;;;0.92;95.17;99802.91;6102522;23;20475;-82
2023/11/25 08:42:02;;;;;;;18.08;1.40;;;2.50;99.90;;;0.97;95.21;99801.06;6150186;23;20120;-81
2023/11/25 08:44:28;;;;;;;11.60;1.75;;;2.50;99.90;;;0.99;95.63;99790.66;6118794;23;20009;-81
2023/11/25 08:47:39;;;;;;;;;;;;;;;;;;;;;
2023/11/25 08:50:45;;;;;;;;;;;;;;;;;;;;;
2023/11/25 08:53:25;;;;;;;9.73;1.88;;;2.70;99.90;;;1.13;95.76;99795.53;5978562;23;20430;-84
2023/11/25 08:56:21;;;;;;;;;;;;;;;;;;;;;
2023/11/25 09:05:05;;;;;;;;;;;;;;;;;;;;;
2023/11/25 09:07:55;;;;;;;;;;;;;;;;;;;;;
2023/11/25 09:10:57;;;;;;;;;;;;;;;;;;;;;
2023/11/25 09:13:39;;;;;;;;;;;;;;;;;;;;;
2023/11/25 09:16:19;;;;;;;;;;;;;;;;;;;;;
2023/11/25 09:18:46;;;;;;;15.43;1.70;;;;;;;1.57;96.49;99804.84;5991151;23;20090;-84
2023/11/25 09:21:51;;;;;;;;;;;;;;;;;;;;;
2023/11/25 09:25:31;;;;;;;;;;;;;;;;;;;;;
2023/11/25 09:28:18;;;;;;;;;;;;;;;;;;;;;
2023/11/25 09:30:47;;;;;;;9.82;1.65;;;;;;;2.01;95.28;99828.00;5827276;23;20512;-80
2023/11/25 09:33:14;;;;;;;12.27;1.92;;;;;;;2.16;94.65;99832.78;5919360;23;20032;-83
2023/11/25 09:36:05;;;;;;;9.70;1.67;;;3.60;99.90;;;2.28;94.75;99836.81;6008179;23;20032;-82
2023/11/25 09:38:46;;;;;;;10.95;1.60;;;;;;;2.40;94.16;99839.06;5913789;23;20084;-82
2023/11/25 09:41:15;;;;;;;13.55;1.80;;;;;;;2.58;94.09;99839.47;5932523;23;20343;-84
2023/11/25 09:43:47;;;;;;;13.40;2.15;;;4.00;99.90;;;2.80;93.48;99847.50;5967303;23;20788;-83
2023/11/25 09:46:26;;;;;;;;;;;;;;;;;;;;;
2023/11/25 09:49:05;;;;;;;6.72;1.63;;;4.30;99.90;;;3.21;92.53;99846.28;5992004;23;20073;-82
2023/11/25 09:51:55;;;;;;;9.48;1.42;;;;;;;3.27;91.88;99846.09;5960074;23;20026;-83
2023/11/25 09:54:47;;;;;;;12.75;1.60;;;4.60;99.90;;;3.27;91.51;99847.84;5907376;23;20043;-83
2023/11/25 09:57:51;;;;;;;;;;;;;;;;;;;;;
2023/11/25 10:00:24;;;;;;;7.88;1.60;;;;;;;3.34;90.81;99846.75;5895954;23;20247;-84
2023/11/25 10:03:16;;;;;;;;;;;;;;;;;;;;;
2023/11/25 10:05:55;;;;;;;16.98;1.70;;;4.80;99.90;;;3.56;90.52;99838.25;5932048;23;20339;-82
2023/11/25 10:08:34;;;;;;;;;;;;;;;;;;;;;
2023/11/25 10:11:24;;;;;;;;;;;;;;;;;;;;;
2023/11/25 10:14:06;;;;;;;;;;;;;;;;;;;;;
2023/11/25 10:16:41;;;;;;;9.80;1.58;;;5.10;99.90;;;3.83;89.19;99821.75;6037965;23;20425;-82
2023/11/25 16:19:39;;;;;;;2.58;0.47;;;2.40;99.90;;;0.59;80.77;100120.56;6108525;23;20040;-89
2023/11/25 16:22:28;;;;;;;0.93;0.50;;;;;;;0.61;80.82;100117.03;6105986;22;20020;-89
2023/11/25 16:29:15;;;;;;;1.30;0.60;;;2.40;99.90;;;0.62;80.93;100117.91;6179546;23;20111;-90
2023/11/25 16:32:18;;;;;;;;;;;;;;;;;;;;;
2023/11/25 16:34:58;;;;;;;;;;;;;;;;;;;;;
2023/11/25 16:37:49;;;;;;;0.43;0.30;;;;;;;0.49;80.79;100131.91;6016180;23;20049;-89
2023/11/25 16:41:07;;;;;;;1.25;0.30;;;2.40;99.90;;;0.47;80.62;100131.94;6052417;23;20013;-90
2023/11/25 16:43:34;;;;;;;1.05;0.60;;;;;;;0.51;80.53;100141.38;6086416;23;20013;-88
2023/11/25 16:49:58;;;;;;;1.58;0.40;;;2.30;99.90;;;0.53;81.32;100147.41;5993964;23;20023;-88
2023/11/25 16:52:25;;;;;;;2.97;0.45;;;;;;;0.46;81.62;100148.38;6031983;23;20062;-88
2023/11/25 16:55:28;;;;;;;;;;;;;;;;;;;;;
2023/11/25 16:57:56;;;;;;;0.88;0.40;;;;;;;0.44;81.83;100160.50;5974579;23;20197;-89
2023/11/25 17:04:20;;;;;;;0.60;0.38;;;;;;;0.28;81.40;100171.91;5898464;23;20032;-88
2023/11/25 17:06:45;;;;;;;0.52;0.40;;;2.10;99.90;;;0.24;81.27;100176.31;5911309;24;20544;-89
2023/11/25 17:12:57;;;;;;;1.60;0.40;;;;;;;0.07;80.82;100181.69;5813926;24;20025;-88
2023/11/25 17:16:18;;;;;;;;;;;;;;;;;;;;;
2023/11/25 17:19:04;;;;;;;0.50;0.40;;;1.90;99.90;;;-0.03;80.42;100183.53;6073220;23;20097;-90
2023/11/25 17:21:44;;;;;;;1.85;0.68;;;;;;;-0.07;79.90;100186.16;6143064;23;20029;-88
2023/11/25 17:24:10;;;;;;;0.77;0.40;;;1.80;99.90;;;-0.08;79.40;100197.41;6162817;22;20117;-87
2023/11/25 17:27:16;;;;;;;1.35;0.45;;;1.70;99.90;;;-0.18;78.65;100203.56;6149917;23;20008;-89
2023/11/25 17:29:56;;;;;;;2.65;0.50;;;1.70;99.90;;;-0.24;78.55;100207.94;6109654;23;20051;-88
2023/11/25 17:32:25;;;;;;;0.93;0.50;;;;;;;-0.22;78.65;100208.78;6048532;23;20015;-87
2023/11/25 17:35:17;;;;;;;0.93;0.60;;;1.70;99.90;;;-0.22;79.04;100215.66;6151031;22;20096;-87
2023/11/25 17:37:47;;;;;;;2.58;0.65;;;;;;;-0.28;78.66;100208.84;6076713;23;20017;-88
2023/11/25 17:44:07;;;;;;;0.93;0.50;;;;;;;-0.24;78.52;100214.81;5981549;23;20036;-87
2023/11/25 17:47:06;;;;;;;1.15;0.50;;;1.60;99.90;;;-0.32;78.42;100229.59;6162799;23;20020;-87
2023/11/25 17:49:46;;;;;;;0.95;0.50;;;;;;;-0.34;78.54;100232.19;6100200;23;20400;-87
2023/11/25 17:52:34;;;;;;;0.80;0.40;;;1.50;99.90;;;-0.50;78.05;100228.00;6085347;23;20457;-88
2023/11/25 17:55:39;;;;;;;1.92;0.52;;;1.40;99.90;;;-0.57;78.86;100232.38;6139981;23;20021;-87
2023/11/25 17:58:17;;;;;;;0.40;0.30;;;;;;;-0.60;78.85;100236.72;6099099;23;20106;-87
2023/11/25 18:08:37;;;;;;;0.77;0.40;;;;;;;-0.87;78.65;100230.91;6074971;23;20204;-87
2023/11/25 18:11:17;;;;;;;1.85;0.52;;;1.10;99.90;;;-0.93;79.20;100236.13;5993707;23;20445;-88
2023/11/25 18:14:27;;;;;;;1.20;0.40;;;1.00;99.90;;;-0.91;79.38;100248.16;5947742;23;20014;-87
2023/11/25 18:17:28;;;;;;;0.65;0.40;;;;;;;-0.92;79.70;100254.22;5798450;24;20018;-87
2023/11/25 18:20:07;;;;;;;1.60;0.55;;;;;;;-0.90;79.15;100256.78;5828964;24;20089;-87
2023/11/25 18:22:46;;;;;;;0.93;0.60;;;;;;;-0.97;79.35;100253.41;5836088;24;20053;-87
2023/11/25 18:25:15;;;;;;;2.10;0.73;;;0.90;99.90;;;-0.99;79.30;100264.59;5874592;24;20024;-87
2023/11/25 18:28:41;;;;;;;1.00;0.40;;;0.90;99.90;;;-1.09;79.50;100256.91;5857949;24;20017;-87
2023/11/25 18:31:24;;;;;;;1.20;0.40;;;0.80;99.90;;;-1.17;80.17;100269.00;5804719;24;20043;-87